sensor_id;sensor_type;location;lat;lon;timestamp;pressure;altitude;pressure_sealevel;temperature;humidity
42415;BME280;28058;46.344;17.786;2022-08-07T00:02:06;118336.50;;;-144.97;79.00
42415;BME280;28058;46.344;17.786;2022-08-07T00:04:53;118336.50;;;-144.97;78.52
42415;BME280;28058;46.344;17.786;2022-08-07T00:07:20;118336.50;;;-144.97;77.74
42415;BME280;28058;46.344;17.786;2022-08-07T00:09:47;118336.50;;;-144.97;78.46
42415;BME280;28058;46.344;17.786;2022-08-07T00:12:33;118336.50;;;-144.97;79.07
42415;BME280;28058;46.344;17.786;2022-08-07T00:15:20;118336.50;;;-144.97;78.97
42415;BME280;28058;46.344;17.786;2022-08-07T00:17:51;118336.50;;;-144.97;79.00
42415;BME280;28058;46.344;17.786;2022-08-07T00:20:17;118336.50;;;-144.97;79.61
42415;BME280;28058;46.344;17.786;2022-08-07T00:22:59;118336.50;;;-144.97;80.18
42415;BME280;28058;46.344;17.786;2022-08-07T00:25:26;118336.50;;;-144.97;79.70
42415;BME280;28058;46.344;17.786;2022-08-07T00:28:03;118336.50;;;-144.97;79.55
42415;BME280;28058;46.344;17.786;2022-08-07T00:30:30;118336.50;;;-144.97;80.06
42415;BME280;28058;46.344;17.786;2022-08-07T00:32:58;118336.50;;;-144.97;80.66
42415;BME280;28058;46.344;17.786;2022-08-07T00:35:26;118336.50;;;-144.97;81.05
42415;BME280;28058;46.344;17.786;2022-08-07T00:37:55;118336.50;;;-144.97;81.75
42415;BME280;28058;46.344;17.786;2022-08-07T00:40:22;118336.50;;;-144.97;82.28
42415;BME280;28058;46.344;17.786;2022-08-07T00:43:07;118336.50;;;-144.97;81.43
42415;BME280;28058;46.344;17.786;2022-08-07T00:45:37;118336.50;;;-144.97;82.67
42415;BME280;28058;46.344;17.786;2022-08-07T00:48:04;118336.50;;;-144.97;83.12
42415;BME280;28058;46.344;17.786;2022-08-07T00:50:37;118336.50;;;-144.97;83.53
42415;BME280;28058;46.344;17.786;2022-08-07T00:53:15;118336.50;;;-144.97;82.18
42415;BME280;28058;46.344;17.786;2022-08-07T00:55:42;118336.50;;;-144.97;82.65
42415;BME280;28058;46.344;17.786;2022-08-07T00:58:29;118336.50;;;-144.97;81.86
42415;BME280;28058;46.344;17.786;2022-08-07T01:00:57;118336.50;;;-144.97;82.16
42415;BME280;28058;46.344;17.786;2022-08-07T01:03:24;118336.50;;;-144.97;82.75
42415;BME280;28058;46.344;17.786;2022-08-07T01:06:11;118336.50;;;-144.97;83.08
42415;BME280;28058;46.344;17.786;2022-08-07T01:08:39;118336.50;;;-144.97;83.22
42415;BME280;28058;46.344;17.786;2022-08-07T01:11:19;118336.50;;;-144.97;83.28
42415;BME280;28058;46.344;17.786;2022-08-07T01:14:06;118336.50;;;-144.97;83.24
42415;BME280;28058;46.344;17.786;2022-08-07T01:16:35;118336.50;;;-144.97;83.18
42415;BME280;28058;46.344;17.786;2022-08-07T01:19:03;118336.50;;;-144.97;84.54
42415;BME280;28058;46.344;17.786;2022-08-07T01:21:45;118336.50;;;-144.97;83.67
42415;BME280;28058;46.344;17.786;2022-08-07T01:24:13;118336.50;;;-144.97;83.97
42415;BME280;28058;46.344;17.786;2022-08-07T01:26:49;118336.50;;;-144.97;83.45
42415;BME280;28058;46.344;17.786;2022-08-07T01:29:19;118336.50;;;-144.97;84.15
42415;BME280;28058;46.344;17.786;2022-08-07T01:31:48;118336.50;;;-144.97;84.91
42415;BME280;28058;46.344;17.786;2022-08-07T01:34:15;118336.50;;;-144.97;84.75
42415;BME280;28058;46.344;17.786;2022-08-07T01:36:56;118336.50;;;-144.97;83.99
42415;BME280;28058;46.344;17.786;2022-08-07T01:39:27;118336.50;;;-144.97;84.10
42415;BME280;28058;46.344;17.786;2022-08-07T01:42:06;118336.50;;;-144.97;84.11
42415;BME280;28058;46.344;17.786;2022-08-07T01:44:54;118336.50;;;-144.97;84.80
42415;BME280;28058;46.344;17.786;2022-08-07T01:47:21;118336.50;;;-144.97;85.36
42415;BME280;28058;46.344;17.786;2022-08-07T01:50:08;118336.50;;;-144.97;85.79
42415;BME280;28058;46.344;17.786;2022-08-07T01:52:36;118336.50;;;-144.97;85.27
42415;BME280;28058;46.344;17.786;2022-08-07T01:55:15;118336.50;;;-144.97;86.13
42415;BME280;28058;46.344;17.786;2022-08-07T01:57:50;118336.50;;;-144.97;86.17
42415;BME280;28058;46.344;17.786;2022-08-07T02:00:34;118336.50;;;-144.97;85.51
42415;BME280;28058;46.344;17.786;2022-08-07T02:03:17;118336.50;;;-144.97;85.97
42415;BME280;28058;46.344;17.786;2022-08-07T02:06:02;118336.50;;;-144.97;85.96
42415;BME280;28058;46.344;17.786;2022-08-07T02:08:51;118336.50;;;-144.97;86.28
42415;BME280;28058;46.344;17.786;2022-08-07T02:11:19;118336.50;;;-144.97;86.10
42415;BME280;28058;46.344;17.786;2022-08-07T02:14:07;118336.50;;;-144.97;86.99
42415;BME280;28058;46.344;17.786;2022-08-07T02:16:55;118336.50;;;-144.97;86.98
42415;BME280;28058;46.344;17.786;2022-08-07T02:19:23;118336.50;;;-144.97;86.98
42415;BME280;28058;46.344;17.786;2022-08-07T02:22:12;118336.50;;;-144.97;87.45
42415;BME280;28058;46.344;17.786;2022-08-07T02:24:45;118336.50;;;-144.97;87.06
42415;BME280;28058;46.344;17.786;2022-08-07T02:27:16;118336.50;;;-144.97;87.11
42415;BME280;28058;46.344;17.786;2022-08-07T02:29:44;118336.50;;;-144.97;87.77
42415;BME280;28058;46.344;17.786;2022-08-07T02:32:21;118336.50;;;-144.97;88.20
42415;BME280;28058;46.344;17.786;2022-08-07T02:34:56;118336.50;;;-144.97;87.71
42415;BME280;28058;46.344;17.786;2022-08-07T02:37:26;118336.50;;;-144.97;88.12
42415;BME280;28058;46.344;17.786;2022-08-07T02:40:03;118336.50;;;-144.97;88.66
42415;BME280;28058;46.344;17.786;2022-08-07T02:42:51;118336.50;;;-144.97;89.24
42415;BME280;28058;46.344;17.786;2022-08-07T02:45:19;118336.50;;;-144.97;89.52
42415;BME280;28058;46.344;17.786;2022-08-07T02:48:08;118336.50;;;-144.97;89.42
42415;BME280;28058;46.344;17.786;2022-08-07T02:50:43;118336.50;;;-144.97;89.01
42415;BME280;28058;46.344;17.786;2022-08-07T02:53:15;118336.50;;;-144.97;89.04
42415;BME280;28058;46.344;17.786;2022-08-07T02:55:45;118336.50;;;-144.97;89.52
42415;BME280;28058;46.344;17.786;2022-08-07T02:58:30;118336.50;;;-144.97;89.13
42415;BME280;28058;46.344;17.786;2022-08-07T03:00:59;118336.50;;;-144.97;89.17
42415;BME280;28058;46.344;17.786;2022-08-07T03:03:32;118336.50;;;-144.97;89.66
42415;BME280;28058;46.344;17.786;2022-08-07T03:06:17;118336.50;;;-144.97;88.98
42415;BME280;28058;46.344;17.786;2022-08-07T03:09:00;118336.50;;;-144.97;89.15
42415;BME280;28058;46.344;17.786;2022-08-07T03:11:28;118336.50;;;-144.97;89.43
42415;BME280;28058;46.344;17.786;2022-08-07T03:13:59;118336.50;;;-144.97;89.71
42415;BME280;28058;46.344;17.786;2022-08-07T03:16:29;118336.50;;;-144.97;89.81
42415;BME280;28058;46.344;17.786;2022-08-07T03:18:57;118336.50;;;-144.97;89.64
42415;BME280;28058;46.344;17.786;2022-08-07T03:21:26;118336.50;;;-144.97;89.96
42415;BME280;28058;46.344;17.786;2022-08-07T03:23:59;118336.50;;;-144.97;89.96
42415;BME280;28058;46.344;17.786;2022-08-07T03:26:46;118336.50;;;-144.97;89.82
42415;BME280;28058;46.344;17.786;2022-08-07T03:29:39;118336.50;;;-144.97;89.67
42415;BME280;28058;46.344;17.786;2022-08-07T03:32:19;118336.50;;;-144.97;89.52
42415;BME280;28058;46.344;17.786;2022-08-07T03:34:49;118336.50;;;-144.97;89.26
42415;BME280;28058;46.344;17.786;2022-08-07T03:37:37;118336.50;;;-144.97;89.28
42415;BME280;28058;46.344;17.786;2022-08-07T03:40:18;118336.50;;;-144.97;89.27
42415;BME280;28058;46.344;17.786;2022-08-07T03:42:49;118336.50;;;-144.97;88.43
42415;BME280;28058;46.344;17.786;2022-08-07T03:45:17;118336.50;;;-144.97;88.70
42415;BME280;28058;46.344;17.786;2022-08-07T03:47:56;118336.50;;;-144.97;89.33
42415;BME280;28058;46.344;17.786;2022-08-07T03:50:24;118336.50;;;-144.97;89.27
42415;BME280;28058;46.344;17.786;2022-08-07T03:52:56;118336.50;;;-144.97;89.60
42415;BME280;28058;46.344;17.786;2022-08-07T03:55:26;118336.50;;;-144.97;89.44
42415;BME280;28058;46.344;17.786;2022-08-07T03:58:13;118336.50;;;-144.97;89.04
42415;BME280;28058;46.344;17.786;2022-08-07T04:01:02;118336.50;;;-144.97;89.08
42415;BME280;28058;46.344;17.786;2022-08-07T04:03:33;118336.50;;;-144.97;88.62
42415;BME280;28058;46.344;17.786;2022-08-07T04:06:19;118336.50;;;-144.97;88.60
42415;BME280;28058;46.344;17.786;2022-08-07T04:09:04;118336.50;;;-144.97;87.91
42415;BME280;28058;46.344;17.786;2022-08-07T04:11:31;118336.50;;;-144.97;87.53
42415;BME280;28058;46.344;17.786;2022-08-07T04:14:19;118336.50;;;-144.97;87.67
42415;BME280;28058;46.344;17.786;2022-08-07T04:17:06;118336.50;;;-144.97;86.82
42415;BME280;28058;46.344;17.786;2022-08-07T04:19:48;118336.50;;;-144.97;86.18
42415;BME280;28058;46.344;17.786;2022-08-07T04:22:17;118336.50;;;-144.97;86.72
42415;BME280;28058;46.344;17.786;2022-08-07T04:24:49;118336.50;;;-144.97;86.98
42415;BME280;28058;46.344;17.786;2022-08-07T04:27:16;118336.50;;;-144.97;85.07
42415;BME280;28058;46.344;17.786;2022-08-07T04:29:51;118336.50;;;-144.97;81.09
42415;BME280;28058;46.344;17.786;2022-08-07T04:32:28;118336.50;;;-144.97;77.56
42415;BME280;28058;46.344;17.786;2022-08-07T04:35:04;118336.50;;;-144.97;75.03
42415;BME280;28058;46.344;17.786;2022-08-07T04:37:36;118336.50;;;-144.97;71.40
42415;BME280;28058;46.344;17.786;2022-08-07T04:40:24;118336.50;;;-144.97;70.59
42415;BME280;28058;46.344;17.786;2022-08-07T04:42:55;118336.50;;;-144.97;69.73
42415;BME280;28058;46.344;17.786;2022-08-07T04:51:58;118336.50;;;-144.97;63.56
42415;BME280;28058;46.344;17.786;2022-08-07T04:54:35;118336.50;;;-144.97;62.41
42415;BME280;28058;46.344;17.786;2022-08-07T04:57:08;118336.50;;;-144.97;59.72
42415;BME280;28058;46.344;17.786;2022-08-07T05:00:13;118336.50;;;-144.97;58.54
42415;BME280;28058;46.344;17.786;2022-08-07T05:06:06;118336.50;;;-144.97;54.69
42415;BME280;28058;46.344;17.786;2022-08-07T05:09:00;118336.50;;;-144.97;55.30
42415;BME280;28058;46.344;17.786;2022-08-07T05:11:39;118336.50;;;-144.97;59.11
42415;BME280;28058;46.344;17.786;2022-08-07T05:14:41;118336.50;;;-144.97;61.88
42415;BME280;28058;46.344;17.786;2022-08-07T05:17:24;118336.50;;;-144.97;61.11
42415;BME280;28058;46.344;17.786;2022-08-07T05:20:15;118336.50;;;-144.97;63.63
42415;BME280;28058;46.344;17.786;2022-08-07T05:22:44;118336.50;;;-144.97;64.46
42415;BME280;28058;46.344;17.786;2022-08-07T05:25:14;118336.50;;;-144.97;65.55
42415;BME280;28058;46.344;17.786;2022-08-07T05:28:03;118336.50;;;-144.97;66.79
42415;BME280;28058;46.344;17.786;2022-08-07T05:30:48;118336.50;;;-144.97;68.70
42415;BME280;28058;46.344;17.786;2022-08-07T05:33:18;118336.50;;;-144.97;69.14
42415;BME280;28058;46.344;17.786;2022-08-07T05:35:48;118336.50;;;-144.97;67.17
42415;BME280;28058;46.344;17.786;2022-08-07T05:38:19;118336.50;;;-144.97;67.84
42415;BME280;28058;46.344;17.786;2022-08-07T05:41:08;118336.50;;;-144.97;66.81
42415;BME280;28058;46.344;17.786;2022-08-07T05:43:46;118336.50;;;-144.97;66.69
42415;BME280;28058;46.344;17.786;2022-08-07T05:46:35;118336.50;;;-144.97;67.37
42415;BME280;28058;46.344;17.786;2022-08-07T05:49:07;118336.50;;;-144.97;66.54
42415;BME280;28058;46.344;17.786;2022-08-07T05:51:40;118336.50;;;-144.97;68.49
42415;BME280;28058;46.344;17.786;2022-08-07T05:54:08;118336.50;;;-144.97;69.91
42415;BME280;28058;46.344;17.786;2022-08-07T05:56:56;118336.50;;;-144.97;69.89
42415;BME280;28058;46.344;17.786;2022-08-07T05:59:24;118336.50;;;-144.97;71.35
42415;BME280;28058;46.344;17.786;2022-08-07T06:01:53;118336.50;;;-144.97;69.50
42415;BME280;28058;46.344;17.786;2022-08-07T06:04:25;118336.50;;;-144.97;68.21
42415;BME280;28058;46.344;17.786;2022-08-07T06:06:57;118336.50;;;-144.97;67.67
42415;BME280;28058;46.344;17.786;2022-08-07T06:09:32;118336.50;;;-144.97;66.10
42415;BME280;28058;46.344;17.786;2022-08-07T06:12:20;118336.50;;;-144.97;65.08
42415;BME280;28058;46.344;17.786;2022-08-07T06:14:58;118336.50;;;-144.97;66.00
42415;BME280;28058;46.344;17.786;2022-08-07T06:17:31;118336.50;;;-144.97;64.37
42415;BME280;28058;46.344;17.786;2022-08-07T06:20:04;118336.50;;;-144.97;63.40
42415;BME280;28058;46.344;17.786;2022-08-07T06:22:39;118336.50;;;-144.97;64.03
42415;BME280;28058;46.344;17.786;2022-08-07T06:25:27;118336.50;;;-144.97;65.45
42415;BME280;28058;46.344;17.786;2022-08-07T06:28:02;118336.50;;;-144.97;63.26
42415;BME280;28058;46.344;17.786;2022-08-07T06:30:30;118336.50;;;-144.97;65.72
42415;BME280;28058;46.344;17.786;2022-08-07T06:33:02;118336.50;;;-144.97;64.16
42415;BME280;28058;46.344;17.786;2022-08-07T06:35:30;118336.50;;;-144.97;64.43
42415;BME280;28058;46.344;17.786;2022-08-07T06:38:12;118336.50;;;-144.97;64.91
42415;BME280;28058;46.344;17.786;2022-08-07T06:40:48;118336.50;;;-144.97;62.93
42415;BME280;28058;46.344;17.786;2022-08-07T06:43:18;118336.50;;;-144.97;60.01
42415;BME280;28058;46.344;17.786;2022-08-07T06:45:48;118336.50;;;-144.97;61.65
42415;BME280;28058;46.344;17.786;2022-08-07T06:48:17;118336.50;;;-144.97;60.63
42415;BME280;28058;46.344;17.786;2022-08-07T06:50:52;118336.50;;;-144.97;62.00
42415;BME280;28058;46.344;17.786;2022-08-07T06:53:20;118336.50;;;-144.97;61.65
42415;BME280;28058;46.344;17.786;2022-08-07T06:56:09;118336.50;;;-144.97;64.48
42415;BME280;28058;46.344;17.786;2022-08-07T06:58:41;118336.50;;;-144.97;62.08
42415;BME280;28058;46.344;17.786;2022-08-07T07:01:30;118336.50;;;-144.97;59.80
42415;BME280;28058;46.344;17.786;2022-08-07T07:04:14;118336.50;;;-144.97;60.72
42415;BME280;28058;46.344;17.786;2022-08-07T07:07:00;118336.50;;;-144.97;63.25
42415;BME280;28058;46.344;17.786;2022-08-07T07:09:46;118336.50;;;-144.97;58.65
42415;BME280;28058;46.344;17.786;2022-08-07T07:15:15;118336.50;;;-144.97;58.80
42415;BME280;28058;46.344;17.786;2022-08-07T07:17:53;118336.50;;;-144.97;56.95
42415;BME280;28058;46.344;17.786;2022-08-07T07:20:31;118336.50;;;-144.97;57.99
42415;BME280;28058;46.344;17.786;2022-08-07T07:23:01;118336.50;;;-144.97;56.92
42415;BME280;28058;46.344;17.786;2022-08-07T07:25:51;118336.50;;;-144.97;55.72
42415;BME280;28058;46.344;17.786;2022-08-07T07:28:44;118336.50;;;-144.97;55.80
42415;BME280;28058;46.344;17.786;2022-08-07T07:31:38;118336.50;;;-144.97;56.21
42415;BME280;28058;46.344;17.786;2022-08-07T07:34:16;118336.50;;;-144.97;56.27
42415;BME280;28058;46.344;17.786;2022-08-07T07:36:48;118336.50;;;-144.97;54.38
42415;BME280;28058;46.344;17.786;2022-08-07T07:39:20;118336.50;;;-144.97;50.88
42415;BME280;28058;46.344;17.786;2022-08-07T07:41:51;118336.50;;;-144.97;49.00
42415;BME280;28058;46.344;17.786;2022-08-07T07:44:40;118336.50;;;-144.97;49.84
42415;BME280;28058;46.344;17.786;2022-08-07T07:47:09;118336.50;;;-144.97;48.03
42415;BME280;28058;46.344;17.786;2022-08-07T07:49:50;118336.50;;;-144.97;49.29
42415;BME280;28058;46.344;17.786;2022-08-07T07:52:40;118336.50;;;-144.97;45.04
42415;BME280;28058;46.344;17.786;2022-08-07T07:55:08;118336.50;;;-144.97;42.21
42415;BME280;28058;46.344;17.786;2022-08-07T07:57:38;118336.50;;;-144.97;46.09
42415;BME280;28058;46.344;17.786;2022-08-07T08:00:19;118336.50;;;-144.97;42.29
42415;BME280;28058;46.344;17.786;2022-08-07T08:03:04;118336.50;;;-144.97;40.84
42415;BME280;28058;46.344;17.786;2022-08-07T08:05:38;118336.50;;;-144.97;37.24
42415;BME280;28058;46.344;17.786;2022-08-07T08:08:26;118336.50;;;-144.97;38.28
42415;BME280;28058;46.344;17.786;2022-08-07T08:11:07;118336.50;;;-144.97;35.31
42415;BME280;28058;46.344;17.786;2022-08-07T08:13:44;118336.50;;;-144.97;33.42
42415;BME280;28058;46.344;17.786;2022-08-07T08:16:33;118336.50;;;-144.97;32.90
42415;BME280;28058;46.344;17.786;2022-08-07T08:19:03;118336.50;;;-144.97;36.58
42415;BME280;28058;46.344;17.786;2022-08-07T08:21:51;118336.50;;;-144.97;39.90
42415;BME280;28058;46.344;17.786;2022-08-07T08:24:41;118336.50;;;-144.97;39.21
42415;BME280;28058;46.344;17.786;2022-08-07T08:27:49;118336.50;;;-144.97;40.17
42415;BME280;28058;46.344;17.786;2022-08-07T08:30:24;118336.50;;;-144.97;39.08
42415;BME280;28058;46.344;17.786;2022-08-07T08:32:53;118336.50;;;-144.97;38.37
42415;BME280;28058;46.344;17.786;2022-08-07T08:35:24;118336.50;;;-144.97;33.59
42415;BME280;28058;46.344;17.786;2022-08-07T08:37:59;118336.50;;;-144.97;32.89
42415;BME280;28058;46.344;17.786;2022-08-07T08:40:32;118336.50;;;-144.97;35.05
42415;BME280;28058;46.344;17.786;2022-08-07T08:45:48;118336.50;;;-144.97;34.86
42415;BME280;28058;46.344;17.786;2022-08-07T08:51:38;118336.50;;;-144.97;33.65
42415;BME280;28058;46.344;17.786;2022-08-07T08:54:42;118336.50;;;-144.97;34.22
42415;BME280;28058;46.344;17.786;2022-08-07T08:57:24;118336.50;;;-144.97;35.11
42415;BME280;28058;46.344;17.786;2022-08-07T09:00:00;118336.50;;;-144.97;32.75
42415;BME280;28058;46.344;17.786;2022-08-07T09:05:18;118336.50;;;-144.97;31.88
42415;BME280;28058;46.344;17.786;2022-08-07T09:08:07;118336.50;;;-144.97;34.96
42415;BME280;28058;46.344;17.786;2022-08-07T09:13:36;118336.50;;;-144.97;33.79
42415;BME280;28058;46.344;17.786;2022-08-07T09:16:17;118336.50;;;-144.97;32.64
42415;BME280;28058;46.344;17.786;2022-08-07T09:28:05;118336.50;;;-144.97;36.36
42415;BME280;28058;46.344;17.786;2022-08-07T09:31:01;118336.50;;;-144.97;37.73
42415;BME280;28058;46.344;17.786;2022-08-07T09:36:27;118336.50;;;-144.97;36.72
42415;BME280;28058;46.344;17.786;2022-08-07T09:39:54;118336.50;;;-144.97;36.10
42415;BME280;28058;46.344;17.786;2022-08-07T09:54:47;118336.50;;;-144.97;39.42
42415;BME280;28058;46.344;17.786;2022-08-07T10:00:13;118336.50;;;-144.97;42.43
42415;BME280;28058;46.344;17.786;2022-08-07T10:02:57;118336.50;;;-144.97;41.37
42415;BME280;28058;46.344;17.786;2022-08-07T10:09:02;118336.50;;;-144.97;41.93
42415;BME280;28058;46.344;17.786;2022-08-07T10:25:24;118336.50;;;-144.97;43.27
42415;BME280;28058;46.344;17.786;2022-08-07T10:28:40;118336.50;;;-144.97;43.54
42415;BME280;28058;46.344;17.786;2022-08-07T10:37:12;118336.50;;;-144.97;44.04
42415;BME280;28058;46.344;17.786;2022-08-07T10:40:16;118336.50;;;-144.97;43.12
42415;BME280;28058;46.344;17.786;2022-08-07T10:45:35;118336.50;;;-144.97;42.16
42415;BME280;28058;46.344;17.786;2022-08-07T10:51:10;118336.50;;;-144.97;40.14
42415;BME280;28058;46.344;17.786;2022-08-07T11:00:11;118336.50;;;-144.97;40.03
42415;BME280;28058;46.344;17.786;2022-08-07T11:03:14;118336.50;;;-144.97;41.26
42415;BME280;28058;46.344;17.786;2022-08-07T11:06:04;118336.50;;;-144.97;40.41
42415;BME280;28058;46.344;17.786;2022-08-07T11:09:09;118336.50;;;-144.97;41.14
42415;BME280;28058;46.344;17.786;2022-08-07T11:12:05;118336.50;;;-144.97;40.16
42415;BME280;28058;46.344;17.786;2022-08-07T11:14:40;118336.50;;;-144.97;41.04
42415;BME280;28058;46.344;17.786;2022-08-07T11:20:29;118336.50;;;-144.97;40.83
42415;BME280;28058;46.344;17.786;2022-08-07T11:23:18;118336.50;;;-144.97;40.57
42415;BME280;28058;46.344;17.786;2022-08-07T11:28:55;118336.50;;;-144.97;40.37
42415;BME280;28058;46.344;17.786;2022-08-07T11:31:52;118336.50;;;-144.97;39.50
42415;BME280;28058;46.344;17.786;2022-08-07T11:37:36;118336.50;;;-144.97;38.09
42415;BME280;28058;46.344;17.786;2022-08-07T11:40:56;118336.50;;;-144.97;38.09
42415;BME280;28058;46.344;17.786;2022-08-07T11:43:27;118336.50;;;-144.97;37.69
42415;BME280;28058;46.344;17.786;2022-08-07T11:49:24;118336.50;;;-144.97;39.36
42415;BME280;28058;46.344;17.786;2022-08-07T11:58:20;118336.50;;;-144.97;40.43
42415;BME280;28058;46.344;17.786;2022-08-07T12:04:33;118336.50;;;-144.97;40.79
42415;BME280;28058;46.344;17.786;2022-08-07T12:07:19;118336.50;;;-144.97;40.92
42415;BME280;28058;46.344;17.786;2022-08-07T12:09:58;118336.50;;;-144.97;40.34
42415;BME280;28058;46.344;17.786;2022-08-07T12:12:36;118336.50;;;-144.97;40.28
42415;BME280;28058;46.344;17.786;2022-08-07T12:18:04;118336.50;;;-144.97;40.61
42415;BME280;28058;46.344;17.786;2022-08-07T12:23:37;118336.50;;;-144.97;39.11
42415;BME280;28058;46.344;17.786;2022-08-07T12:29:31;118336.50;;;-144.97;39.30
42415;BME280;28058;46.344;17.786;2022-08-07T12:32:19;118336.50;;;-144.97;38.78
42415;BME280;28058;46.344;17.786;2022-08-07T12:34:48;118336.50;;;-144.97;38.55
42415;BME280;28058;46.344;17.786;2022-08-07T12:37:23;118336.50;;;-144.97;38.89
42415;BME280;28058;46.344;17.786;2022-08-07T12:40:11;118336.50;;;-144.97;39.42
42415;BME280;28058;46.344;17.786;2022-08-07T12:43:02;118336.50;;;-144.97;38.41
42415;BME280;28058;46.344;17.786;2022-08-07T12:45:46;118336.50;;;-144.97;39.99
42415;BME280;28058;46.344;17.786;2022-08-07T12:51:23;118336.50;;;-144.97;40.05
42415;BME280;28058;46.344;17.786;2022-08-07T12:54:42;118336.50;;;-144.97;38.67
42415;BME280;28058;46.344;17.786;2022-08-07T12:57:24;118336.50;;;-144.97;39.50
42415;BME280;28058;46.344;17.786;2022-08-07T13:00:13;118336.50;;;-144.97;40.45
42415;BME280;28058;46.344;17.786;2022-08-07T13:03:18;118336.50;;;-144.97;40.32
42415;BME280;28058;46.344;17.786;2022-08-07T13:09:41;118336.50;;;-144.97;41.55
42415;BME280;28058;46.344;17.786;2022-08-07T13:18:15;118336.50;;;-144.97;41.21
42415;BME280;28058;46.344;17.786;2022-08-07T13:20:58;118336.50;;;-144.97;40.16
42415;BME280;28058;46.344;17.786;2022-08-07T13:23:50;118336.50;;;-144.97;41.66
42415;BME280;28058;46.344;17.786;2022-08-07T13:26:41;118336.50;;;-144.97;40.04
42415;BME280;28058;46.344;17.786;2022-08-07T13:29:19;118336.50;;;-144.97;40.67
42415;BME280;28058;46.344;17.786;2022-08-07T13:31:54;118336.50;;;-144.97;40.48
42415;BME280;28058;46.344;17.786;2022-08-07T13:34:47;118336.50;;;-144.97;42.70
42415;BME280;28058;46.344;17.786;2022-08-07T13:40:30;118336.50;;;-144.97;40.72
42415;BME280;28058;46.344;17.786;2022-08-07T13:43:13;118336.50;;;-144.97;40.59
42415;BME280;28058;46.344;17.786;2022-08-07T13:45:45;118336.50;;;-144.97;40.10
42415;BME280;28058;46.344;17.786;2022-08-07T13:48:37;118336.50;;;-144.97;42.37
42415;BME280;28058;46.344;17.786;2022-08-07T13:51:07;118336.50;;;-144.97;40.83
42415;BME280;28058;46.344;17.786;2022-08-07T13:53:59;118336.50;;;-144.97;41.37
42415;BME280;28058;46.344;17.786;2022-08-07T13:56:29;118336.50;;;-144.97;41.26
42415;BME280;28058;46.344;17.786;2022-08-07T13:59:16;118336.50;;;-144.97;41.71
42415;BME280;28058;46.344;17.786;2022-08-07T14:01:54;118336.50;;;-144.97;41.63
42415;BME280;28058;46.344;17.786;2022-08-07T14:04:32;118336.50;;;-144.97;41.57
42415;BME280;28058;46.344;17.786;2022-08-07T14:07:05;118336.50;;;-144.97;41.15
42415;BME280;28058;46.344;17.786;2022-08-07T14:09:36;118336.50;;;-144.97;41.52
42415;BME280;28058;46.344;17.786;2022-08-07T14:12:58;118336.50;;;-144.97;41.57
42415;BME280;28058;46.344;17.786;2022-08-07T14:18:06;118336.50;;;-144.97;41.64
42415;BME280;28058;46.344;17.786;2022-08-07T14:21:01;118336.50;;;-144.97;42.23
42415;BME280;28058;46.344;17.786;2022-08-07T14:23:39;118336.50;;;-144.97;42.26
42415;BME280;28058;46.344;17.786;2022-08-07T14:26:35;118336.50;;;-144.97;41.10
42415;BME280;28058;46.344;17.786;2022-08-07T14:29:09;118336.50;;;-144.97;41.00
42415;BME280;28058;46.344;17.786;2022-08-07T14:31:59;118336.50;;;-144.97;41.04
42415;BME280;28058;46.344;17.786;2022-08-07T14:34:29;118336.50;;;-144.97;41.41
42415;BME280;28058;46.344;17.786;2022-08-07T14:37:00;118336.50;;;-144.97;40.93
42415;BME280;28058;46.344;17.786;2022-08-07T14:39:36;118336.50;;;-144.97;41.48
42415;BME280;28058;46.344;17.786;2022-08-07T14:42:26;118336.50;;;-144.97;41.31
42415;BME280;28058;46.344;17.786;2022-08-07T14:45:02;118336.50;;;-144.97;41.26
42415;BME280;28058;46.344;17.786;2022-08-07T14:47:49;118336.50;;;-144.97;41.43
42415;BME280;28058;46.344;17.786;2022-08-07T14:50:25;118336.50;;;-144.97;41.50
42415;BME280;28058;46.344;17.786;2022-08-07T14:52:59;118336.50;;;-144.97;41.33
42415;BME280;28058;46.344;17.786;2022-08-07T14:55:33;118336.50;;;-144.97;42.43
42415;BME280;28058;46.344;17.786;2022-08-07T14:58:26;118336.50;;;-144.97;41.59
42415;BME280;28058;46.344;17.786;2022-08-07T15:00:58;118336.50;;;-144.97;41.99
42415;BME280;28058;46.344;17.786;2022-08-07T15:03:45;118336.50;;;-144.97;41.86
42415;BME280;28058;46.344;17.786;2022-08-07T15:06:37;118336.50;;;-144.97;42.19
42415;BME280;28058;46.344;17.786;2022-08-07T15:09:09;118336.50;;;-144.97;41.67
42415;BME280;28058;46.344;17.786;2022-08-07T15:12:00;118336.50;;;-144.97;41.43
42415;BME280;28058;46.344;17.786;2022-08-07T15:14:54;118336.50;;;-144.97;40.53
42415;BME280;28058;46.344;17.786;2022-08-07T15:17:27;118336.50;;;-144.97;40.84
42415;BME280;28058;46.344;17.786;2022-08-07T15:20:21;118336.50;;;-144.97;40.92
42415;BME280;28058;46.344;17.786;2022-08-07T15:23:17;118336.50;;;-144.97;40.93
42415;BME280;28058;46.344;17.786;2022-08-07T15:25:57;118336.50;;;-144.97;41.40
42415;BME280;28058;46.344;17.786;2022-08-07T15:28:26;118336.50;;;-144.97;40.94
42415;BME280;28058;46.344;17.786;2022-08-07T15:31:16;118336.50;;;-144.97;40.75
42415;BME280;28058;46.344;17.786;2022-08-07T15:34:03;118336.50;;;-144.97;41.07
42415;BME280;28058;46.344;17.786;2022-08-07T15:36:40;118336.50;;;-144.97;40.40
42415;BME280;28058;46.344;17.786;2022-08-07T15:39:28;118336.50;;;-144.97;40.74